Decoded Metar for LFBP (PAU in FRANCE) (IATA:PUF) | Meteo·Mobile Aviation Weather
aviador You're here:

LFBP Decoded Metar

PAU in FRANCE
Report Time2019-07-19 19:00:00
UTC Time2019-07-19 19:17:10
Flight Rules vfr VFR
Wind050° at 03 kt
W.Decomp.*RWY 13: 0.6 kt HW 2.9 kt LCW
Visibility9999 m
Phenomena:N/A
Clouds:N/A
Expected CloudBase > 4,000 ft AGL from Temp-Dew spread
CeilingNone
Temp27°C (ISA +13)
Dew Point17°C (54% RH)
Heat Index27.7°C
QNH1012 hPa
Density Alt2,421 ft
Elevation607 ft
Report Wrong Elevation
Raw Report
LFBP 191900Z AUTO 05003KT CAVOK 27/17 Q1012 NOSIG=

Extra information for LFBP:More info

Metar Taf Metar & Taf Last 4 Metars F.Rules Stats Wind Profile Meteogram Temp Stats Airport Information Weather charts Add Link Nearby VenuesMetar ALERT Operation Metar Decoded Social comments